KJAC/JAC METAR and TAF weather

Enter ICAO airport designator
Station Type Date Time Source
KJAC METAR 2022/01/18 07:56 UTC NOAA

KJAC 180756Z AUTO 03007KT 10SM CLR M16/M17 A2999 RMK AO2 SLP249 T11561172 FZRANO


Station Type Date Time Source
KJAC Decoded METAR 2022/01/18 07:56 UTC NOAA

Jackson, Jackson Hole Airport, WY, United States (KJAC) 43-36N 110-44W
Jan 18, 2022 - 02:56 AM EST / 2022.01.18 0756 UTC
Wind: from the NNE (030 degrees) at 8 MPH (7 KT):0
Visibility: 10 mile(s):0
Sky conditions: clear
Temperature: 3.9 F (-15.6 C)
Windchill: -9 F (-23 C):2
Dew Point: 1.0 F (-17.2 C)
Relative Humidity: 87%
Pressure (altimeter): 29.99 in. Hg (1015 hPa)
ob: KJAC 180756Z AUTO 03007KT 10SM CLR M16/M17 A2999 RMK AO2 SLP249 T11561172 FZRANO
cycle: 8

Station Type Date Time Source
KJAC TAF 2022/01/18 06:34 UTC NOAA

TAF KJAC 180532Z 1806/1906 03007KT P6SM SCT100 BKN150
FM181500 VRB05KT P6SM BKN060
FM190200 35008KT P6SM BKN050

Example: see airport list